Portada
METAR-TAF:

METAR-TAF

Aeroports :

Boone Municipal Airport

Boone, Iowa, Estats Units d'Amèrica

latitud: 42-03N, longitud: 093-51W, altitud: 354 m

Observació

L'informe es va fer fa 23 minuts, a les 18:35 UTC
Vent 10 kt del Sud/Sud-Est amb ràfegues de 16 kt
Temperatura 26°C
Humitat 79%
Pressió 1007 hPa
Visibilitat: 16.1 km
Escasses núvols a una alçada de 1600 ft
Cel ennuvolat a una alçada de 2700 ft
Cel ennuvolat a una alçada de 3400 ft

METAR: KBNW 191835Z AUTO 16010G16KT 10SM FEW016 BKN027 BKN034 26/22 A2975 RMK AO2

Hora: 13:58 (18:58 UTC)


TAF: manca

Observacions i pronòstics meteorològics de més de 4000 aeroports (METAR i TAF).

Les estacions disponibles són els punts grocs i vermells al mapa.

Posi el ratolí al punt desitjat per veure el nom de l'estació.

Feu clic per veure les observacions i els pronòstics meteorològics.

Per canviar el mapa: feu clic els botons verds amb una creu de color negre per apropar; al botó verd amb un guió per allunyar la imatge; o en les fletxes verdes per a mapes adjacents.


METAR-TAF: